sensor_id;sensor_type;location;lat;lon;timestamp;temperature;humidity
36002;DHT22;22070;50.922;5.430;2023-07-13T00:02:03;17.90;99.90
36002;DHT22;22070;50.922;5.430;2023-07-13T00:04:28;17.80;99.90
36002;DHT22;22070;50.922;5.430;2023-07-13T00:06:54;17.80;99.90
36002;DHT22;22070;50.922;5.430;2023-07-13T00:09:21;17.90;99.90
36002;DHT22;22070;50.922;5.430;2023-07-13T00:11:53;17.80;99.90
36002;DHT22;22070;50.922;5.430;2023-07-13T00:14:19;17.70;99.90
36002;DHT22;22070;50.922;5.430;2023-07-13T00:16:45;17.70;99.90
36002;DHT22;22070;50.922;5.430;2023-07-13T00:19:12;17.80;99.90
36002;DHT22;22070;50.922;5.430;2023-07-13T00:21:39;17.80;99.90
36002;DHT22;22070;50.922;5.430;2023-07-13T00:24:06;17.90;99.90
36002;DHT22;22070;50.922;5.430;2023-07-13T00:26:32;17.80;99.90
36002;DHT22;22070;50.922;5.430;2023-07-13T00:28:59;17.90;99.90
36002;DHT22;22070;50.922;5.430;2023-07-13T00:31:25;17.70;99.90
36002;DHT22;22070;50.922;5.430;2023-07-13T00:33:51;17.60;99.90
36002;DHT22;22070;50.922;5.430;2023-07-13T00:36:17;17.50;99.90
36002;DHT22;22070;50.922;5.430;2023-07-13T00:38:43;17.50;99.90
36002;DHT22;22070;50.922;5.430;2023-07-13T00:41:09;17.60;99.90
36002;DHT22;22070;50.922;5.430;2023-07-13T00:43:35;17.60;99.90
36002;DHT22;22070;50.922;5.430;2023-07-13T00:46:17;17.40;99.90
36002;DHT22;22070;50.922;5.430;2023-07-13T00:48:44;17.40;99.90
36002;DHT22;22070;50.922;5.430;2023-07-13T00:51:11;17.50;99.90
36002;DHT22;22070;50.922;5.430;2023-07-13T00:53:38;17.30;99.90
36002;DHT22;22070;50.922;5.430;2023-07-13T00:56:05;17.40;99.90
36002;DHT22;22070;50.922;5.430;2023-07-13T00:58:32;17.40;99.90
36002;DHT22;22070;50.922;5.430;2023-07-13T01:00:58;17.20;99.90
36002;DHT22;22070;50.922;5.430;2023-07-13T01:03:24;17.10;99.90
36002;DHT22;22070;50.922;5.430;2023-07-13T01:05:50;17.20;99.90
36002;DHT22;22070;50.922;5.430;2023-07-13T01:08:17;17.20;99.90
36002;DHT22;22070;50.922;5.430;2023-07-13T01:10:54;17.10;99.90
36002;DHT22;22070;50.922;5.430;2023-07-13T01:13:20;17.10;99.90
36002;DHT22;22070;50.922;5.430;2023-07-13T01:15:48;17.20;99.90
36002;DHT22;22070;50.922;5.430;2023-07-13T01:18:19;17.10;99.90
36002;DHT22;22070;50.922;5.430;2023-07-13T01:20:59;16.90;99.90
36002;DHT22;22070;50.922;5.430;2023-07-13T01:23:26;17.00;99.90
36002;DHT22;22070;50.922;5.430;2023-07-13T01:25:52;17.00;99.90
36002;DHT22;22070;50.922;5.430;2023-07-13T01:28:18;17.10;99.90
36002;DHT22;22070;50.922;5.430;2023-07-13T01:30:45;17.00;99.90
36002;DHT22;22070;50.922;5.430;2023-07-13T01:33:13;16.90;99.90
36002;DHT22;22070;50.922;5.430;2023-07-13T01:35:39;17.00;99.90
36002;DHT22;22070;50.922;5.430;2023-07-13T01:38:05;17.00;99.90
36002;DHT22;22070;50.922;5.430;2023-07-13T01:40:31;16.90;99.90
36002;DHT22;22070;50.922;5.430;2023-07-13T01:42:58;16.90;99.90
36002;DHT22;22070;50.922;5.430;2023-07-13T01:45:24;16.80;99.90
36002;DHT22;22070;50.922;5.430;2023-07-13T01:47:49;16.70;99.90
36002;DHT22;22070;50.922;5.430;2023-07-13T01:50:15;16.70;99.90
36002;DHT22;22070;50.922;5.430;2023-07-13T01:52:41;16.60;99.90
36002;DHT22;22070;50.922;5.430;2023-07-13T01:55:08;16.60;99.90
36002;DHT22;22070;50.922;5.430;2023-07-13T01:57:33;16.60;99.90
36002;DHT22;22070;50.922;5.430;2023-07-13T02:00:00;16.50;99.90
36002;DHT22;22070;50.922;5.430;2023-07-13T02:02:26;16.60;99.90
36002;DHT22;22070;50.922;5.430;2023-07-13T02:04:52;16.60;99.90
36002;DHT22;22070;50.922;5.430;2023-07-13T02:07:17;16.50;99.90
36002;DHT22;22070;50.922;5.430;2023-07-13T02:09:43;16.40;99.90
36002;DHT22;22070;50.922;5.430;2023-07-13T02:12:09;16.60;99.90
36002;DHT22;22070;50.922;5.430;2023-07-13T02:14:34;16.50;99.90
36002;DHT22;22070;50.922;5.430;2023-07-13T02:17:00;16.30;99.90
36002;DHT22;22070;50.922;5.430;2023-07-13T02:19:26;16.30;99.90
36002;DHT22;22070;50.922;5.430;2023-07-13T02:21:52;16.40;99.90
36002;DHT22;22070;50.922;5.430;2023-07-13T02:24:17;16.30;99.90
36002;DHT22;22070;50.922;5.430;2023-07-13T02:26:45;16.20;99.90
36002;DHT22;22070;50.922;5.430;2023-07-13T02:29:11;16.20;99.90
36002;DHT22;22070;50.922;5.430;2023-07-13T02:31:37;16.20;99.90
36002;DHT22;22070;50.922;5.430;2023-07-13T02:34:03;16.20;99.90
36002;DHT22;22070;50.922;5.430;2023-07-13T02:36:30;16.10;99.90
36002;DHT22;22070;50.922;5.430;2023-07-13T02:38:56;16.10;99.90
36002;DHT22;22070;50.922;5.430;2023-07-13T02:41:21;16.10;99.90
36002;DHT22;22070;50.922;5.430;2023-07-13T02:43:48;16.10;99.90
36002;DHT22;22070;50.922;5.430;2023-07-13T02:46:14;16.20;99.90
36002;DHT22;22070;50.922;5.430;2023-07-13T02:48:40;16.10;99.90
36002;DHT22;22070;50.922;5.430;2023-07-13T02:51:06;16.20;99.90
36002;DHT22;22070;50.922;5.430;2023-07-13T02:53:33;16.10;99.90
36002;DHT22;22070;50.922;5.430;2023-07-13T02:55:58;16.10;99.90
36002;DHT22;22070;50.922;5.430;2023-07-13T02:58:24;16.00;99.90
36002;DHT22;22070;50.922;5.430;2023-07-13T03:00:51;16.00;99.90
36002;DHT22;22070;50.922;5.430;2023-07-13T03:03:18;16.10;99.90
36002;DHT22;22070;50.922;5.430;2023-07-13T03:05:44;16.10;99.90
36002;DHT22;22070;50.922;5.430;2023-07-13T03:08:16;16.00;99.90
36002;DHT22;22070;50.922;5.430;2023-07-13T03:10:41;16.00;99.90
36002;DHT22;22070;50.922;5.430;2023-07-13T03:13:07;15.90;99.90
36002;DHT22;22070;50.922;5.430;2023-07-13T03:15:33;16.00;99.90
36002;DHT22;22070;50.922;5.430;2023-07-13T03:17:59;16.00;99.90
36002;DHT22;22070;50.922;5.430;2023-07-13T03:20:24;16.10;99.90
36002;DHT22;22070;50.922;5.430;2023-07-13T03:22:50;16.00;99.90
36002;DHT22;22070;50.922;5.430;2023-07-13T03:25:16;15.80;99.90
36002;DHT22;22070;50.922;5.430;2023-07-13T03:27:41;15.80;99.90
36002;DHT22;22070;50.922;5.430;2023-07-13T03:30:08;15.80;99.90
36002;DHT22;22070;50.922;5.430;2023-07-13T03:32:33;15.80;99.90
36002;DHT22;22070;50.922;5.430;2023-07-13T03:34:59;16.00;99.90
36002;DHT22;22070;50.922;5.430;2023-07-13T03:37:25;16.10;99.90
36002;DHT22;22070;50.922;5.430;2023-07-13T03:39:51;16.00;99.90
36002;DHT22;22070;50.922;5.430;2023-07-13T03:42:16;16.00;99.90
36002;DHT22;22070;50.922;5.430;2023-07-13T03:44:42;15.90;99.90
36002;DHT22;22070;50.922;5.430;2023-07-13T03:47:11;15.80;99.90
36002;DHT22;22070;50.922;5.430;2023-07-13T03:49:37;15.80;99.90
36002;DHT22;22070;50.922;5.430;2023-07-13T03:52:03;15.90;99.90
36002;DHT22;22070;50.922;5.430;2023-07-13T03:54:29;15.90;99.90
36002;DHT22;22070;50.922;5.430;2023-07-13T03:56:55;15.80;99.90
36002;DHT22;22070;50.922;5.430;2023-07-13T03:59:20;15.80;99.90
36002;DHT22;22070;50.922;5.430;2023-07-13T04:01:46;15.80;99.90
36002;DHT22;22070;50.922;5.430;2023-07-13T04:04:12;15.80;99.90
36002;DHT22;22070;50.922;5.430;2023-07-13T04:06:38;16.00;99.90
36002;DHT22;22070;50.922;5.430;2023-07-13T04:09:04;16.00;99.90
36002;DHT22;22070;50.922;5.430;2023-07-13T04:11:35;16.00;99.90
36002;DHT22;22070;50.922;5.430;2023-07-13T04:14:04;16.00;99.90
36002;DHT22;22070;50.922;5.430;2023-07-13T04:16:29;15.90;99.90
36002;DHT22;22070;50.922;5.430;2023-07-13T04:18:56;15.90;99.90
36002;DHT22;22070;50.922;5.430;2023-07-13T04:21:26;16.10;99.90
36002;DHT22;22070;50.922;5.430;2023-07-13T04:23:52;16.10;99.90
36002;DHT22;22070;50.922;5.430;2023-07-13T04:26:18;16.00;99.90
36002;DHT22;22070;50.922;5.430;2023-07-13T04:28:47;16.00;99.90
36002;DHT22;22070;50.922;5.430;2023-07-13T04:31:13;16.00;99.90
36002;DHT22;22070;50.922;5.430;2023-07-13T04:33:39;16.10;99.90
36002;DHT22;22070;50.922;5.430;2023-07-13T04:36:05;16.10;99.90
36002;DHT22;22070;50.922;5.430;2023-07-13T04:38:32;16.20;99.90
36002;DHT22;22070;50.922;5.430;2023-07-13T04:41:04;16.20;99.90
36002;DHT22;22070;50.922;5.430;2023-07-13T04:43:30;16.30;99.90
36002;DHT22;22070;50.922;5.430;2023-07-13T04:45:56;16.30;99.90
36002;DHT22;22070;50.922;5.430;2023-07-13T04:48:22;16.30;99.90
36002;DHT22;22070;50.922;5.430;2023-07-13T04:50:55;16.40;99.90
36002;DHT22;22070;50.922;5.430;2023-07-13T04:53:20;16.40;99.90
36002;DHT22;22070;50.922;5.430;2023-07-13T04:55:46;16.50;99.90
36002;DHT22;22070;50.922;5.430;2023-07-13T04:58:12;16.50;99.90
36002;DHT22;22070;50.922;5.430;2023-07-13T05:00:39;16.60;99.90
36002;DHT22;22070;50.922;5.430;2023-07-13T05:03:05;16.60;99.90
36002;DHT22;22070;50.922;5.430;2023-07-13T05:05:31;16.50;99.90
36002;DHT22;22070;50.922;5.430;2023-07-13T05:07:57;16.50;99.90
36002;DHT22;22070;50.922;5.430;2023-07-13T05:10:23;16.50;99.90
36002;DHT22;22070;50.922;5.430;2023-07-13T05:12:49;16.50;99.90
36002;DHT22;22070;50.922;5.430;2023-07-13T05:15:15;16.40;99.90
36002;DHT22;22070;50.922;5.430;2023-07-13T05:17:40;16.40;99.90
36002;DHT22;22070;50.922;5.430;2023-07-13T05:20:08;16.40;99.90
36002;DHT22;22070;50.922;5.430;2023-07-13T05:22:33;16.40;99.90
36002;DHT22;22070;50.922;5.430;2023-07-13T05:25:01;16.30;99.90
36002;DHT22;22070;50.922;5.430;2023-07-13T05:27:27;16.30;99.90
36002;DHT22;22070;50.922;5.430;2023-07-13T05:29:52;16.40;99.90
36002;DHT22;22070;50.922;5.430;2023-07-13T05:32:18;16.40;99.90
36002;DHT22;22070;50.922;5.430;2023-07-13T05:34:44;16.40;99.90
36002;DHT22;22070;50.922;5.430;2023-07-13T05:37:10;16.50;99.90
36002;DHT22;22070;50.922;5.430;2023-07-13T05:39:35;16.40;99.90
36002;DHT22;22070;50.922;5.430;2023-07-13T05:42:02;16.50;99.90
36002;DHT22;22070;50.922;5.430;2023-07-13T05:44:28;16.60;99.90
36002;DHT22;22070;50.922;5.430;2023-07-13T05:46:53;16.70;99.90
36002;DHT22;22070;50.922;5.430;2023-07-13T05:49:21;16.70;99.90
36002;DHT22;22070;50.922;5.430;2023-07-13T05:51:47;16.80;99.90
36002;DHT22;22070;50.922;5.430;2023-07-13T05:54:12;16.80;99.90
36002;DHT22;22070;50.922;5.430;2023-07-13T05:56:38;16.90;99.90
36002;DHT22;22070;50.922;5.430;2023-07-13T05:59:04;16.80;99.90
36002;DHT22;22070;50.922;5.430;2023-07-13T06:01:30;16.80;99.90
36002;DHT22;22070;50.922;5.430;2023-07-13T06:03:56;16.80;99.90
36002;DHT22;22070;50.922;5.430;2023-07-13T06:06:22;17.00;99.90
36002;DHT22;22070;50.922;5.430;2023-07-13T06:08:47;17.20;99.90
36002;DHT22;22070;50.922;5.430;2023-07-13T06:11:19;17.20;99.90
36002;DHT22;22070;50.922;5.430;2023-07-13T06:13:45;17.20;99.90
36002;DHT22;22070;50.922;5.430;2023-07-13T06:16:11;17.10;99.90
36002;DHT22;22070;50.922;5.430;2023-07-13T06:18:38;17.10;99.90
36002;DHT22;22070;50.922;5.430;2023-07-13T06:21:12;17.20;99.90
36002;DHT22;22070;50.922;5.430;2023-07-13T06:23:38;17.20;99.90
36002;DHT22;22070;50.922;5.430;2023-07-13T06:26:05;17.20;99.90
36002;DHT22;22070;50.922;5.430;2023-07-13T06:28:32;17.10;99.90
36002;DHT22;22070;50.922;5.430;2023-07-13T06:30:58;17.20;99.90
36002;DHT22;22070;50.922;5.430;2023-07-13T06:33:25;17.20;99.90
36002;DHT22;22070;50.922;5.430;2023-07-13T06:35:50;17.30;99.90
36002;DHT22;22070;50.922;5.430;2023-07-13T06:38:16;17.30;99.90
36002;DHT22;22070;50.922;5.430;2023-07-13T06:40:42;17.40;99.90
36002;DHT22;22070;50.922;5.430;2023-07-13T06:43:07;17.50;99.90
36002;DHT22;22070;50.922;5.430;2023-07-13T06:45:41;17.60;99.90
36002;DHT22;22070;50.922;5.430;2023-07-13T06:48:07;17.60;99.90
36002;DHT22;22070;50.922;5.430;2023-07-13T06:50:33;17.70;99.90
36002;DHT22;22070;50.922;5.430;2023-07-13T06:52:59;17.60;99.90
36002;DHT22;22070;50.922;5.430;2023-07-13T06:55:25;17.80;99.90
36002;DHT22;22070;50.922;5.430;2023-07-13T06:57:51;17.80;99.90
36002;DHT22;22070;50.922;5.430;2023-07-13T07:00:17;17.80;99.90
36002;DHT22;22070;50.922;5.430;2023-07-13T07:02:43;17.80;99.90
36002;DHT22;22070;50.922;5.430;2023-07-13T07:05:08;17.90;99.90
36002;DHT22;22070;50.922;5.430;2023-07-13T07:07:34;17.90;99.90
36002;DHT22;22070;50.922;5.430;2023-07-13T07:10:00;18.00;99.90
36002;DHT22;22070;50.922;5.430;2023-07-13T07:12:25;18.00;99.90
36002;DHT22;22070;50.922;5.430;2023-07-13T07:14:51;18.00;99.90
36002;DHT22;22070;50.922;5.430;2023-07-13T07:17:17;18.00;99.90
36002;DHT22;22070;50.922;5.430;2023-07-13T07:19:43;18.00;99.90
36002;DHT22;22070;50.922;5.430;2023-07-13T07:22:08;18.00;99.90
36002;DHT22;22070;50.922;5.430;2023-07-13T07:24:34;18.20;99.90
36002;DHT22;22070;50.922;5.430;2023-07-13T07:26:59;18.10;99.90
36002;DHT22;22070;50.922;5.430;2023-07-13T07:29:25;18.20;99.90
36002;DHT22;22070;50.922;5.430;2023-07-13T07:31:53;18.30;99.90
36002;DHT22;22070;50.922;5.430;2023-07-13T07:34:19;18.40;99.90
36002;DHT22;22070;50.922;5.430;2023-07-13T07:36:44;18.40;99.90
36002;DHT22;22070;50.922;5.430;2023-07-13T07:39:10;18.50;99.90
36002;DHT22;22070;50.922;5.430;2023-07-13T07:41:37;18.60;99.90
36002;DHT22;22070;50.922;5.430;2023-07-13T07:44:03;18.50;99.90
36002;DHT22;22070;50.922;5.430;2023-07-13T07:46:29;18.60;99.90
36002;DHT22;22070;50.922;5.430;2023-07-13T07:48:55;18.70;99.90
36002;DHT22;22070;50.922;5.430;2023-07-13T07:51:21;18.60;99.90
36002;DHT22;22070;50.922;5.430;2023-07-13T07:53:47;18.60;99.90
36002;DHT22;22070;50.922;5.430;2023-07-13T07:56:13;18.60;99.90
36002;DHT22;22070;50.922;5.430;2023-07-13T07:58:38;18.80;99.90
36002;DHT22;22070;50.922;5.430;2023-07-13T08:01:05;18.80;99.90
36002;DHT22;22070;50.922;5.430;2023-07-13T08:03:31;18.80;99.90
36002;DHT22;22070;50.922;5.430;2023-07-13T08:05:57;18.90;99.90
36002;DHT22;22070;50.922;5.430;2023-07-13T08:08:23;18.90;99.90
36002;DHT22;22070;50.922;5.430;2023-07-13T08:10:49;19.00;99.90
36002;DHT22;22070;50.922;5.430;2023-07-13T08:13:14;19.00;99.90
36002;DHT22;22070;50.922;5.430;2023-07-13T08:15:40;18.90;99.90
36002;DHT22;22070;50.922;5.430;2023-07-13T08:18:06;19.00;99.90
36002;DHT22;22070;50.922;5.430;2023-07-13T08:20:39;19.00;99.90
36002;DHT22;22070;50.922;5.430;2023-07-13T08:23:05;19.10;99.90
36002;DHT22;22070;50.922;5.430;2023-07-13T08:25:31;19.10;99.90
36002;DHT22;22070;50.922;5.430;2023-07-13T08:27:56;19.10;99.90
36002;DHT22;22070;50.922;5.430;2023-07-13T08:30:22;19.20;99.90
36002;DHT22;22070;50.922;5.430;2023-07-13T08:32:48;19.30;99.90
36002;DHT22;22070;50.922;5.430;2023-07-13T08:35:15;19.40;99.90
36002;DHT22;22070;50.922;5.430;2023-07-13T08:37:41;19.40;99.90
36002;DHT22;22070;50.922;5.430;2023-07-13T08:40:10;19.40;99.90
36002;DHT22;22070;50.922;5.430;2023-07-13T08:42:40;19.50;99.90
36002;DHT22;22070;50.922;5.430;2023-07-13T08:45:38;19.60;99.90
36002;DHT22;22070;50.922;5.430;2023-07-13T08:48:21;19.60;99.90
36002;DHT22;22070;50.922;5.430;2023-07-13T08:50:58;19.70;99.90
36002;DHT22;22070;50.922;5.430;2023-07-13T08:53:41;19.70;99.90
36002;DHT22;22070;50.922;5.430;2023-07-13T08:56:17;19.80;99.90
36002;DHT22;22070;50.922;5.430;2023-07-13T08:58:45;19.90;99.90
36002;DHT22;22070;50.922;5.430;2023-07-13T09:01:28;19.80;99.90
36002;DHT22;22070;50.922;5.430;2023-07-13T09:12:01;20.10;99.90
36002;DHT22;22070;50.922;5.430;2023-07-13T09:14:43;20.20;99.90
36002;DHT22;22070;50.922;5.430;2023-07-13T09:17:31;20.30;99.90
36002;DHT22;22070;50.922;5.430;2023-07-13T09:20:06;20.30;99.90
36002;DHT22;22070;50.922;5.430;2023-07-13T09:22:37;20.20;99.90
36002;DHT22;22070;50.922;5.430;2023-07-13T09:25:31;20.20;99.90
36002;DHT22;22070;50.922;5.430;2023-07-13T09:28:10;20.20;99.90
36002;DHT22;22070;50.922;5.430;2023-07-13T09:30:43;20.30;99.90
36002;DHT22;22070;50.922;5.430;2023-07-13T09:33:10;20.30;99.90
36002;DHT22;22070;50.922;5.430;2023-07-13T09:35:36;20.30;99.90
36002;DHT22;22070;50.922;5.430;2023-07-13T09:38:12;20.30;99.90
36002;DHT22;22070;50.922;5.430;2023-07-13T09:43:27;20.50;99.90
36002;DHT22;22070;50.922;5.430;2023-07-13T09:45:55;20.60;99.90
36002;DHT22;22070;50.922;5.430;2023-07-13T09:48:20;20.60;99.90
36002;DHT22;22070;50.922;5.430;2023-07-13T09:50:46;20.70;99.90
36002;DHT22;22070;50.922;5.430;2023-07-13T09:53:18;20.80;99.90
36002;DHT22;22070;50.922;5.430;2023-07-13T09:55:47;20.90;99.90
36002;DHT22;22070;50.922;5.430;2023-07-13T09:58:22;20.80;99.90
36002;DHT22;22070;50.922;5.430;2023-07-13T10:01:01;20.90;99.90
36002;DHT22;22070;50.922;5.430;2023-07-13T10:03:33;20.90;99.90
36002;DHT22;22070;50.922;5.430;2023-07-13T10:06:19;20.90;99.90
36002;DHT22;22070;50.922;5.430;2023-07-13T10:08:46;20.80;99.90
36002;DHT22;22070;50.922;5.430;2023-07-13T10:11:25;20.80;99.90
36002;DHT22;22070;50.922;5.430;2023-07-13T10:14:17;20.90;99.90
36002;DHT22;22070;50.922;5.430;2023-07-13T10:16:45;21.00;99.90
36002;DHT22;22070;50.922;5.430;2023-07-13T10:19:26;21.20;99.90
36002;DHT22;22070;50.922;5.430;2023-07-13T10:21:57;21.40;99.90
36002;DHT22;22070;50.922;5.430;2023-07-13T10:24:31;21.30;99.90
36002;DHT22;22070;50.922;5.430;2023-07-13T10:27:18;21.50;99.90
36002;DHT22;22070;50.922;5.430;2023-07-13T10:32:37;21.20;99.90
36002;DHT22;22070;50.922;5.430;2023-07-13T10:35:03;21.50;99.90
36002;DHT22;22070;50.922;5.430;2023-07-13T10:37:39;21.60;99.90
36002;DHT22;22070;50.922;5.430;2023-07-13T10:40:12;21.80;99.90
36002;DHT22;22070;50.922;5.430;2023-07-13T10:42:43;21.90;99.90
36002;DHT22;22070;50.922;5.430;2023-07-13T10:45:15;22.20;99.90
36002;DHT22;22070;50.922;5.430;2023-07-13T10:47:43;22.10;99.90
36002;DHT22;22070;50.922;5.430;2023-07-13T10:50:15;22.10;99.90
36002;DHT22;22070;50.922;5.430;2023-07-13T10:52:49;22.00;99.90
36002;DHT22;22070;50.922;5.430;2023-07-13T10:58:15;22.10;99.90
36002;DHT22;22070;50.922;5.430;2023-07-13T11:00:48;22.00;99.90
36002;DHT22;22070;50.922;5.430;2023-07-13T11:03:16;21.80;99.90
36002;DHT22;22070;50.922;5.430;2023-07-13T11:05:43;21.80;99.90
36002;DHT22;22070;50.922;5.430;2023-07-13T11:10:53;21.60;99.90
36002;DHT22;22070;50.922;5.430;2023-07-13T11:14:26;21.70;99.90
36002;DHT22;22070;50.922;5.430;2023-07-13T11:16:45;21.80;99.90
36002;DHT22;22070;50.922;5.430;2023-07-13T11:24:30;22.40;99.90
36002;DHT22;22070;50.922;5.430;2023-07-13T11:27:36;22.60;99.90
36002;DHT22;22070;50.922;5.430;2023-07-13T11:30:24;22.90;99.90
36002;DHT22;22070;50.922;5.430;2023-07-13T11:33:12;22.80;99.90
36002;DHT22;22070;50.922;5.430;2023-07-13T11:36:00;22.80;99.90
36002;DHT22;22070;50.922;5.430;2023-07-13T11:38:38;22.70;99.90
36002;DHT22;22070;50.922;5.430;2023-07-13T11:41:19;22.70;99.90
36002;DHT22;22070;50.922;5.430;2023-07-13T11:43:49;23.00;99.90
36002;DHT22;22070;50.922;5.430;2023-07-13T11:46:26;23.00;99.90
36002;DHT22;22070;50.922;5.430;2023-07-13T11:48:53;23.10;99.90
36002;DHT22;22070;50.922;5.430;2023-07-13T11:51:25;23.10;99.90
36002;DHT22;22070;50.922;5.430;2023-07-13T11:53:54;23.20;99.90
36002;DHT22;22070;50.922;5.430;2023-07-13T11:56:21;23.10;99.90
36002;DHT22;22070;50.922;5.430;2023-07-13T11:58:50;23.00;99.90
36002;DHT22;22070;50.922;5.430;2023-07-13T12:01:29;23.10;99.90
36002;DHT22;22070;50.922;5.430;2023-07-13T12:04:03;23.00;99.90
36002;DHT22;22070;50.922;5.430;2023-07-13T12:06:34;23.20;99.90
36002;DHT22;22070;50.922;5.430;2023-07-13T12:09:08;23.20;99.90
36002;DHT22;22070;50.922;5.430;2023-07-13T12:11:42;23.20;99.90
36002;DHT22;22070;50.922;5.430;2023-07-13T12:14:15;23.20;99.90
36002;DHT22;22070;50.922;5.430;2023-07-13T12:16:42;23.30;99.90
36002;DHT22;22070;50.922;5.430;2023-07-13T12:19:14;23.30;99.90
36002;DHT22;22070;50.922;5.430;2023-07-13T12:21:42;23.50;99.90
36002;DHT22;22070;50.922;5.430;2023-07-13T12:24:16;23.30;99.90
36002;DHT22;22070;50.922;5.430;2023-07-13T12:26:42;23.20;99.90
36002;DHT22;22070;50.922;5.430;2023-07-13T12:29:16;23.10;99.90
36002;DHT22;22070;50.922;5.430;2023-07-13T12:31:44;23.20;99.90
36002;DHT22;22070;50.922;5.430;2023-07-13T12:34:13;23.20;99.90
36002;DHT22;22070;50.922;5.430;2023-07-13T12:36:54;23.20;99.90
36002;DHT22;22070;50.922;5.430;2023-07-13T12:39:25;23.20;99.90
36002;DHT22;22070;50.922;5.430;2023-07-13T12:41:54;23.30;99.90
36002;DHT22;22070;50.922;5.430;2023-07-13T12:44:40;23.30;99.90
36002;DHT22;22070;50.922;5.430;2023-07-13T12:47:11;23.30;99.90
36002;DHT22;22070;50.922;5.430;2023-07-13T12:49:47;23.50;99.90
36002;DHT22;22070;50.922;5.430;2023-07-13T12:52:16;23.80;99.90
36002;DHT22;22070;50.922;5.430;2023-07-13T12:54:42;24.00;99.90
36002;DHT22;22070;50.922;5.430;2023-07-13T12:57:15;24.00;99.90
36002;DHT22;22070;50.922;5.430;2023-07-13T12:59:42;23.80;99.90
36002;DHT22;22070;50.922;5.430;2023-07-13T13:02:37;23.50;99.90
36002;DHT22;22070;50.922;5.430;2023-07-13T13:05:03;23.60;99.90
36002;DHT22;22070;50.922;5.430;2023-07-13T13:07:30;23.60;99.90
36002;DHT22;22070;50.922;5.430;2023-07-13T13:09:55;23.50;99.90
36002;DHT22;22070;50.922;5.430;2023-07-13T13:12:22;23.40;99.90
36002;DHT22;22070;50.922;5.430;2023-07-13T13:14:49;23.50;99.90
36002;DHT22;22070;50.922;5.430;2023-07-13T13:17:26;23.60;99.90
36002;DHT22;22070;50.922;5.430;2023-07-13T13:19:53;23.30;99.90
36002;DHT22;22070;50.922;5.430;2023-07-13T13:22:19;23.30;99.90
36002;DHT22;22070;50.922;5.430;2023-07-13T13:24:45;23.10;99.90
36002;DHT22;22070;50.922;5.430;2023-07-13T13:27:21;23.10;99.90
36002;DHT22;22070;50.922;5.430;2023-07-13T13:29:50;23.00;99.90
36002;DHT22;22070;50.922;5.430;2023-07-13T13:32:17;23.00;99.90
36002;DHT22;22070;50.922;5.430;2023-07-13T13:34:44;23.00;99.90
36002;DHT22;22070;50.922;5.430;2023-07-13T13:37:19;23.10;99.90
36002;DHT22;22070;50.922;5.430;2023-07-13T13:39:46;22.90;99.90
36002;DHT22;22070;50.922;5.430;2023-07-13T13:42:12;22.70;99.90
36002;DHT22;22070;50.922;5.430;2023-07-13T13:44:38;22.60;99.90
36002;DHT22;22070;50.922;5.430;2023-07-13T13:47:03;22.20;99.90
36002;DHT22;22070;50.922;5.430;2023-07-13T13:49:30;22.20;99.90
36002;DHT22;22070;50.922;5.430;2023-07-13T13:51:56;22.00;99.90
36002;DHT22;22070;50.922;5.430;2023-07-13T13:54:23;21.50;99.90
36002;DHT22;22070;50.922;5.430;2023-07-13T13:56:51;21.20;99.90
36002;DHT22;22070;50.922;5.430;2023-07-13T13:59:17;21.20;99.90
36002;DHT22;22070;50.922;5.430;2023-07-13T14:01:45;21.10;99.90
36002;DHT22;22070;50.922;5.430;2023-07-13T14:04:19;20.90;99.90
36002;DHT22;22070;50.922;5.430;2023-07-13T14:06:45;20.90;99.90
36002;DHT22;22070;50.922;5.430;2023-07-13T14:09:13;20.80;99.90
36002;DHT22;22070;50.922;5.430;2023-07-13T14:11:40;20.60;99.90
36002;DHT22;22070;50.922;5.430;2023-07-13T14:14:16;20.60;99.90
36002;DHT22;22070;50.922;5.430;2023-07-13T14:16:42;20.60;99.90
36002;DHT22;22070;50.922;5.430;2023-07-13T14:19:13;20.70;99.90
36002;DHT22;22070;50.922;5.430;2023-07-13T14:21:40;20.90;99.90
36002;DHT22;22070;50.922;5.430;2023-07-13T14:24:06;20.90;99.90
36002;DHT22;22070;50.922;5.430;2023-07-13T14:26:39;21.10;99.90
36002;DHT22;22070;50.922;5.430;2023-07-13T14:29:12;21.20;99.90
36002;DHT22;22070;50.922;5.430;2023-07-13T14:31:38;21.40;99.90
36002;DHT22;22070;50.922;5.430;2023-07-13T14:34:04;21.40;99.90
36002;DHT22;22070;50.922;5.430;2023-07-13T14:36:32;21.30;99.90
36002;DHT22;22070;50.922;5.430;2023-07-13T14:39:01;21.50;99.90
36002;DHT22;22070;50.922;5.430;2023-07-13T14:41:31;21.50;99.90
36002;DHT22;22070;50.922;5.430;2023-07-13T14:43:58;21.50;99.90
36002;DHT22;22070;50.922;5.430;2023-07-13T14:46:29;21.40;99.90
36002;DHT22;22070;50.922;5.430;2023-07-13T14:49:03;21.50;99.90
36002;DHT22;22070;50.922;5.430;2023-07-13T14:51:31;21.60;99.90
36002;DHT22;22070;50.922;5.430;2023-07-13T14:54:00;21.70;99.90
36002;DHT22;22070;50.922;5.430;2023-07-13T14:56:27;21.70;99.90
36002;DHT22;22070;50.922;5.430;2023-07-13T14:58:53;21.90;99.90
36002;DHT22;22070;50.922;5.430;2023-07-13T15:01:20;21.90;99.90
36002;DHT22;22070;50.922;5.430;2023-07-13T15:03:48;22.30;99.90
36002;DHT22;22070;50.922;5.430;2023-07-13T15:06:15;22.60;99.90
36002;DHT22;22070;50.922;5.430;2023-07-13T15:08:41;22.90;99.90
36002;DHT22;22070;50.922;5.430;2023-07-13T15:11:08;22.90;99.90
36002;DHT22;22070;50.922;5.430;2023-07-13T15:13:37;23.20;99.90
36002;DHT22;22070;50.922;5.430;2023-07-13T15:16:05;23.40;99.90
36002;DHT22;22070;50.922;5.430;2023-07-13T15:18:36;23.60;99.90
36002;DHT22;22070;50.922;5.430;2023-07-13T15:21:09;23.60;99.90
36002;DHT22;22070;50.922;5.430;2023-07-13T15:23:36;23.90;99.90
36002;DHT22;22070;50.922;5.430;2023-07-13T15:26:02;24.10;99.90
36002;DHT22;22070;50.922;5.430;2023-07-13T15:28:28;24.10;99.90
36002;DHT22;22070;50.922;5.430;2023-07-13T15:30:54;24.30;99.90
36002;DHT22;22070;50.922;5.430;2023-07-13T15:33:26;24.30;99.90
36002;DHT22;22070;50.922;5.430;2023-07-13T15:35:53;24.20;99.90
36002;DHT22;22070;50.922;5.430;2023-07-13T15:38:27;24.20;99.90
36002;DHT22;22070;50.922;5.430;2023-07-13T15:40:53;24.50;99.90
36002;DHT22;22070;50.922;5.430;2023-07-13T15:43:19;24.60;99.90
36002;DHT22;22070;50.922;5.430;2023-07-13T15:45:46;24.60;99.90
36002;DHT22;22070;50.922;5.430;2023-07-13T15:48:13;25.00;99.90
36002;DHT22;22070;50.922;5.430;2023-07-13T15:50:44;25.00;99.90
36002;DHT22;22070;50.922;5.430;2023-07-13T15:53:10;25.10;99.90
36002;DHT22;22070;50.922;5.430;2023-07-13T15:55:38;25.30;99.90
36002;DHT22;22070;50.922;5.430;2023-07-13T15:58:05;25.30;99.90
36002;DHT22;22070;50.922;5.430;2023-07-13T16:00:30;25.40;99.90
36002;DHT22;22070;50.922;5.430;2023-07-13T16:02:56;25.40;99.90
36002;DHT22;22070;50.922;5.430;2023-07-13T16:05:23;25.50;99.90